Hlavní strana
METAR-TAF:

METAR-TAF

Letiště :

Brønnøysund, Norsko

zeměpisná šířka: 65-28N, zeměpisná délka: 012-13E, výška: 0 m

Aktuální stav počasí

Zpráva byla vytvořena před 36 minutami, v 07:20 UTC
Východojihovýchodní vítr 16 kt s nárazy do 31 kt, proměnlivý mezi východním a jihojihovýchodním
Teplota 15°C
Vlhkost vzduchu 39%
Tlak 1017 hPa
Viditelnost 10 km a více
Žádná oblačnost pod 1500 m, nevyskytují se cumulonimby.

METAR: ENBN 260720Z 11016G31KT 100V160 CAVOK 15/01 Q1017

Čas: 09:56 (07:56 UTC)

Předpověď počasí

Zpráva byla vytvořena před 2 hodinami a 56 minutami, v 05:00 UTC
Předpověď platná od 26 v 06 UTC do 26 v 15 UTC
Východojihovýchodní vítr 15 kt
Viditelnost 10 km a více
Žádná oblačnost pod 1500 m, nevyskytují se cumulonimby.
Dočasný
od 26 v 06 UTC do 26 v 12 UTC
Východojihovýchodní vítr 20 kt s nárazy do 30 kt

TAF: ENBN 260500Z 2606/2615 12015KT CAVOK TEMPO 2606/2612 12020G30KT

Stav a předpovědi počasí z více než 4 000 letišť (zprávy METAR a TAF).

Červené a žluté tečky na mapě představují dostupné meteorologické stanice.

Když kurzor umístíte na tečku, zobrazí se název stanice.

Pak kliknutím zobrazíte stav a předpověď počasí.

Chcete-li změnit mapu, kliknutím na zelené tlačítko se znaménkem +mapu přiblížíte, kliknutím na zelené tlačítko se znaménkem – mapu oddálíte a kliknutím na zelené šipky přejdete na sousední mapy.


METAR-TAF: